Ruby, Alaska
Current Conditions -  °F | °C
As of 5:56 AM on Saturday 20 Dec 2014 (Local Time) from PARY Reporting Station
Clear Clear  
Wind Chill:   Ceiling: Unl
Heat Index:   Visibility: 10mi
Dew Point: -3°   Wind: 0mph
Humidity: 83%   Direction: NA
Pressure: 29.2"   Gusts: NA
Location:  64.74°N, 155.49°W
Report Text: PARY 201456Z AUTO 00000KT 10SM CLR M17/M19 A2920 RMK AO2 TSNO 56009 T11721194 SLP907 $
Loading
Personal Weather Stations






























Interactive Weather Map New forecast layout! Learn more

10-Day Weather Forecast

Advertisements
Track Severe Weather on mobile